Latest Weather Observations for Bankstown

IDN60801

Issued at 12:23 am EDT Monday 26 October 2020 (issued every 10 minutes, with the page automatically refreshed every 10 minutes)

About weather observations | Map of weather stations | Latest weather observations for NSW | Other Formats
Station Details ID: 066137 Name: BANKSTOWN AIRPORT AWS Lat: -33.92 Lon: 150.98 Height: 7.2 m
Data from the previous 72 hours. | See also: Recent months at Bankstown
Date/Time
EDT
Temp
°C
App
Temp
°C
Dew
Point
°C
Rel
Hum
%
Delta-T
°C
Wind Press
QNH
hPa
Press
MSL
hPa
Rain since
9am
mm
Dir  Spd
km/h
Gust
km/h
Spd
kts
Gust
kts
26/12:00am 14.4 10.3 12.8 90 0.9 S 26 41 14 22 1016.1 1016.1 14.0
 
Date/Time
EDT
Temp
°C
App
Temp
°C
Dew
Point
°C
Rel
Hum
%
Delta-T
°C
Wind Press
QNH
hPa
Press
MSL
hPa
Rain since
9am
mm
Dir  Spd
km/h
Gust
km/h
Spd
kts
Gust
kts
25/11:30pm 14.0 11.6 12.6 91 0.8 S 17 28 9 15 1016.2 1016.2 13.8
25/11:00pm 14.0 10.2 12.4 90 0.9 S 24 35 13 19 1016.6 1016.6 12.8
25/10:46pm 14.1 9.4 12.1 88 1.1 S 28 48 15 26 1016.7 1016.7 12.6
25/10:30pm 14.4 10.3 12.6 89 1.0 S 26 39 14 21 1016.6 1016.6 12.0
25/10:00pm 15.0 11.8 12.0 82 1.6 S 20 35 11 19 1016.9 1016.9 11.8
25/09:30pm 15.0 11.5 12.1 83 1.6 S 22 32 12 17 1016.6 1016.6 11.8
25/09:00pm 14.7 11.7 11.8 83 1.6 S 19 30 10 16 1016.4 1016.4 11.8
25/08:30pm 14.7 11.8 12.4 86 1.3 SSW 19 30 10 16 1016.2 1016.2 11.8
25/08:09pm 14.3 11.9 12.5 89 1.0 SSW 17 26 9 14 1015.9 1015.9 11.8
25/08:00pm 14.1 12.0 12.5 90 0.9 SSW 15 24 8 13 1015.8 1015.8 11.8
25/07:43pm 14.0 11.8 12.2 89 1.0 SSW 15 24 8 13 1015.8 1015.8 11.8
25/07:30pm 13.8 11.6 12.0 89 1.0 SSW 15 24 8 13 1015.7 1015.7 11.8
25/07:21pm 13.7 11.0 11.8 88 1.0 S 17 24 9 13 1015.6 1015.6 11.8
25/07:00pm 13.3 11.4 11.9 91 0.7 WSW 13 17 7 9 1015.3 1015.3 11.8
25/06:40pm 13.0 11.5 11.9 93 0.6 SW 11 19 6 10 1014.5 1014.5 11.6
25/06:30pm 12.9 9.7 12.0 94 0.5 SSW 20 30 11 16 1014.2 1014.2 11.4
25/06:19pm 12.8 9.2 12.0 95 0.4 S 22 35 12 19 1013.5 1013.5 11.0
25/06:10pm 12.8 10.2 12.0 95 0.4 SSW 17 22 9 12 1014.2 1014.2 10.8
25/06:00pm 12.6 11.0 11.7 94 0.5 SW 11 15 6 8 1014.8 1014.8 9.8
25/05:52pm 12.7 11.6 11.8 94 0.5 W 9 13 5 7 1015.2 1015.2 8.4
25/05:30pm 12.7 11.6 11.8 94 0.5 WNW 9 13 5 7 1015.4 1015.4 6.2
25/05:06pm 12.5 10.5 11.6 94 0.5 SW 13 22 7 12 1014.4 1014.4 4.4
25/05:00pm 12.5 10.5 11.6 94 0.5 SW 13 17 7 9 1014.3 1014.3 4.2
25/04:36pm 12.6 10.6 11.5 93 0.6 WSW 13 19 7 10 1014.9 1014.9 2.8
25/04:30pm 12.6 10.6 11.5 93 0.6 SW 13 19 7 10 1014.6 1014.6 2.6
25/04:17pm 12.7 11.1 11.4 92 0.7 WSW 11 19 6 10 1014.7 1014.7 1.8
25/04:09pm 12.9 10.1 11.3 90 0.8 SW 17 28 9 15 1014.6 1014.6 1.2
25/04:02pm 13.0 10.5 11.2 89 0.9 SW 15 20 8 11 1014.4 1014.4 1.0
25/04:00pm 13.0 10.5 11.2 89 0.9 SW 15 20 8 11 1014.3 1014.3 1.0
25/03:31pm 13.5 11.2 10.5 82 1.6 SSW 13 20 7 11 1014.3 1014.3 0.4
25/03:30pm 13.6 11.3 10.6 82 1.6 SSW 13 20 7 11 1014.3 1014.3 0.4
25/03:00pm 14.1 10.9 9.9 76 2.2 S 17 24 9 13 1014.4 1014.4 0.2
25/02:30pm 14.7 11.1 9.9 73 2.5 S 19 33 10 18 1014.4 1014.4 0.2
25/02:00pm 14.7 10.2 10.1 74 2.4 SSW 24 32 13 17 1014.2 1014.2 0.2
25/01:39pm 14.0 10.4 10.6 80 1.8 S 20 28 11 15 1014.3 1014.3 0.2
25/01:30pm 13.8 10.9 11.1 84 1.4 S 17 22 9 12 1014.4 1014.4 0.2
25/01:22pm 13.7 10.7 10.5 81 1.7 S 17 30 9 16 1014.5 1014.5 0.2
25/01:00pm 14.9 10.7 9.7 71 2.7 SSW 22 32 12 17 1014.4 1014.4 0.0
25/12:30pm 14.7 10.1 9.7 72 2.6 S 24 33 13 18 1014.4 1014.4 0.0
25/12:00pm 14.6 9.6 9.4 71 2.7 S 26 35 14 19 1014.4 1014.4 0.0
25/11:30am 14.8 11.5 9.6 71 2.7 S 17 28 9 15 1014.6 1014.6 0.0
25/11:00am 14.6 10.3 9.4 71 2.7 S 22 33 12 18 1014.6 1014.6 0.0
25/10:30am 14.8 9.7 10.6 76 2.2 S 28 41 15 22 1014.5 1014.5 0.0
25/10:00am 14.6 11.0 10.6 77 2.1 S 20 28 11 15 1014.3 1014.3 0.0
25/09:30am 14.2 10.2 10.4 78 2.0 SSW 22 32 12 17 1013.9 1013.9 0.0
25/09:00am 14.5 10.5 10.5 77 2.1 S 22 35 12 19 1013.5 1013.5 22.6
25/08:30am 13.7 11.5 10.7 82 1.6 S 13 19 7 10 1013.2 1013.2 22.6
25/08:00am 14.4 11.7 10.2 76 2.2 S 15 24 8 13 1012.7 1012.7 22.6
25/07:30am 14.1 11.1 10.7 80 1.8 S 17 24 9 13 1012.3 1012.3 22.6
25/07:00am 14.1 11.3 11.4 84 1.4 S 17 28 9 15 1011.6 1011.6 22.6
25/06:33am 14.1 11.3 11.4 84 1.4 S 17 26 9 14 1011.2 1011.2 22.6
25/06:30am 14.2 11.5 11.7 85 1.3 S 17 26 9 14 1011.2 1011.2 22.6
25/06:00am 14.3 11.6 11.8 85 1.3 S 17 26 9 14 1010.6 1010.6 22.6
25/05:30am 14.3 11.6 11.8 85 1.3 S 17 26 9 14 1009.9 1009.9 22.6
25/05:00am 14.3 11.6 11.8 85 1.3 S 17 26 9 14 1009.3 1009.3 22.6
25/04:30am 14.4 12.2 12.1 86 1.2 S 15 17 8 9 1008.9 1008.9 22.6
25/04:00am 14.3 11.8 12.2 87 1.1 S 17 24 9 13 1008.7 1008.7 22.6
25/03:58am 14.5 12.0 12.4 87 1.1 S 17 24 9 13 1008.7 1008.7 22.6
25/03:30am 14.4 12.6 12.1 86 1.2 SSW 13 22 7 12 1008.6 1008.6 22.6
25/03:00am 14.4 12.3 12.3 87 1.1 S 15 28 8 15 1008.2 1008.2 22.6
25/02:30am 14.3 12.2 12.5 89 1.0 S 15 24 8 13 1007.8 1007.8 22.4
25/02:00am 14.6 11.8 12.6 88 1.1 S 19 28 10 15 1007.9 1007.9 22.4
25/01:30am 14.5 12.1 12.7 89 1.0 S 17 28 9 15 1007.9 1007.9 22.2
25/01:00am 14.7 11.1 13.2 91 0.8 SSE 24 39 13 21 1007.1 1007.1 22.2
25/12:40am 14.8 10.6 13.5 92 0.7 S 28 43 15 23 1007.2 1007.2 21.2
25/12:30am 14.9 11.9 13.6 92 0.7 S 22 32 12 17 1006.9 1006.9 19.8
25/12:00am 15.8 11.1 14.2 90 0.9 SSE 32 39 17 21 1006.2 1006.2 15.4
 
Date/Time
EDT
Temp
°C
App
Temp
°C
Dew
Point
°C
Rel
Hum
%
Delta-T
°C
Wind Press
QNH
hPa
Press
MSL
hPa
Rain since
9am
mm
Dir  Spd
km/h
Gust
km/h
Spd
kts
Gust
kts
24/11:55pm 15.9 11.1 13.9 88 1.1 SSE 32 41 17 22 1006.0 1006.0 15.2
24/11:53pm 16.0 11.5 13.8 87 1.2 SSE 30 41 16 22 1006.0 1006.0 15.0
24/11:38pm 17.1 12.5 14.7 86 1.4 SSE 32 44 17 24 1006.0 1006.0 14.4
24/11:30pm 18.0 17.5 15.8 87 1.3 E 13 39 7 21 1005.9 1005.9 14.4
24/11:00pm 19.0 20.8 17.3 90 1.0 NNW 4 9 2 5 1004.8 1004.8 14.4
24/10:30pm 19.1 21.4 17.8 92 0.8 NW 2 6 1 3 1004.9 1004.9 14.4
24/10:00pm 19.3 21.0 18.0 92 0.8 NNW 6 7 3 4 1005.2 1005.2 14.4
24/09:30pm 19.6 21.1 18.1 91 0.9 E 7 11 4 6 1004.3 1004.3 14.4
24/09:00pm 19.7 21.4 18.4 92 0.8 N 7 9 4 5 1004.4 1004.4 14.4
24/08:30pm 19.9 21.3 18.6 92 0.8 N 9 11 5 6 1003.9 1003.9 14.4
24/08:00pm 20.1 21.6 18.8 92 0.8 NNW 9 17 5 9 1003.4 1003.4 14.2
24/07:30pm 20.2 21.8 19.2 94 0.6 N 9 13 5 7 1003.2 1003.2 13.4
24/07:00pm 20.3 21.1 19.1 93 0.8 NNE 13 17 7 9 1002.6 1002.6 12.6
24/06:30pm 20.4 21.6 19.1 92 0.8 NNE 11 15 6 8 1002.5 1002.5 11.6
24/06:00pm 20.6 22.6 19.1 91 0.9 NNE 7 13 4 7 1003.0 1003.0 10.2
24/05:34pm 20.7 22.7 19.2 91 0.9 N 7 11 4 6 1003.1 1003.1 10.0
24/05:30pm 20.8 22.5 19.3 91 0.9 NNE 9 13 5 7 1003.1 1003.1 10.0
24/05:19pm 20.8 22.4 19.1 90 1.1 NNW 9 19 5 10 1003.0 1003.0 9.6
24/05:00pm 21.4 23.0 19.1 87 1.5 N 9 15 5 8 1002.7 1002.7 7.8
24/04:30pm 21.5 23.3 19.6 89 1.2 N 9 20 5 11 1002.4 1002.4 7.8
24/04:00pm 21.5 22.2 19.6 89 1.2 NNE 15 20 8 11 1002.0 1002.0 7.6
24/03:30pm 21.5 22.8 20.1 92 0.9 NNE 13 19 7 10 1002.4 1002.4 7.6
24/03:00pm 21.1 23.0 19.7 92 0.9 NNW 9 13 5 7 1003.0 1003.0 7.0
24/02:42pm 20.8 21.6 19.1 90 1.1 N 13 22 7 12 1003.2 1003.2 6.4
24/02:30pm 21.0 21.5 19.3 90 1.1 N 15 20 8 11 1003.5 1003.5 5.6
24/02:14pm 21.5 21.0 19.2 87 1.5 N 20 33 11 18 1003.8 1003.8 2.2
24/02:00pm 22.4 22.4 19.8 85 1.7 N 19 30 10 16 1003.4 1003.4 1.0
24/01:30pm 23.0 22.4 18.5 76 2.8 N 19 30 10 16 1003.3 1003.3 0.2
24/01:00pm 25.1 24.6 17.8 64 4.6 N 17 24 9 13 1003.2 1003.2 0.0
24/12:30pm 25.3 24.4 17.7 62 4.8 N 19 30 10 16 1003.4 1003.4 0.0
24/12:00pm 24.3 23.6 18.2 68 3.9 N 19 32 10 17 1004.2 1004.2 0.0
24/11:30am 23.0 23.1 19.2 79 2.4 N 17 30 9 16 1004.8 1004.8 0.0
24/11:00am 22.9 23.0 18.4 76 2.8 N 15 28 8 15 1004.8 1004.8 0.0
24/10:30am 23.1 22.8 18.2 74 3.1 NNW 17 30 9 16 1005.2 1005.2 0.0
24/10:00am 23.3 22.3 18.0 72 3.3 N 20 30 11 16 1005.4 1005.4 0.0
24/09:30am 22.7 22.7 18.0 75 2.9 N 15 22 8 12 1005.4 1005.4 0.0
24/09:00am 22.4 22.9 18.4 78 2.5 N 13 24 7 13 1005.8 1005.8 4.0
24/08:30am 21.3 23.6 18.5 84 1.8 SW 4 7 2 4 1006.2 1006.2 4.0
24/08:00am 20.1 23.1 18.4 90 1.1 CALM 0 0 0 0 1006.3 1006.3 4.0
24/07:30am 19.5 22.5 18.5 94 0.6 CALM 0 0 0 0 1006.3 1006.3 4.0
24/07:00am 19.2 22.2 18.4 95 0.5 CALM 0 0 0 0 1006.1 1006.1 4.0
24/06:30am 19.0 21.9 18.2 95 0.5 CALM 0 0 0 0 1005.7 1005.7 4.0
24/06:00am 19.0 21.5 18.2 95 0.5 NNW 2 7 1 4 1005.4 1005.4 4.0
24/05:30am 19.1 21.2 18.1 94 0.6 E 4 9 2 5 1005.3 1005.3 4.0
24/05:00am 19.1 20.3 18.3 95 0.5 E 9 11 5 6 1005.1 1005.1 4.0
24/04:30am 19.1 22.0 18.3 95 0.5 CALM 0 6 0 3 1006.2 1006.2 4.0
24/04:00am 19.1 21.2 18.1 94 0.6 NW 4 9 2 5 1006.8 1006.8 3.6
24/03:30am 19.3 20.4 18.1 93 0.7 WNW 9 13 5 7 1007.3 1007.3 1.8
24/03:10am 19.4 20.9 18.1 92 0.8 SSW 7 13 4 7 1007.1 1007.1 0.8
24/03:00am 19.7 22.5 18.0 90 1.1 CALM 0 4 0 2 1006.8 1006.8 0.8
24/02:51am 19.6 21.2 17.9 90 1.0 SE 6 9 3 5 1006.7 1006.7 0.8
24/02:41am 19.7 20.7 17.7 88 1.2 SSW 9 11 5 6 1006.8 1006.8 0.6
24/02:38am 19.7 20.7 17.7 88 1.2 SW 9 11 5 6 1006.8 1006.8 0.6
24/02:30am 19.9 20.5 17.7 87 1.4 WNW 11 22 6 12 1007.4 1007.4 0.0
24/02:22am 19.9 20.5 17.7 87 1.4 WNW 11 17 6 9 1007.9 1007.9 0.0
24/02:00am 20.1 22.5 17.1 83 1.8 CALM 0 0 0 0 1006.8 1006.8 0.0
24/01:30am 20.2 21.5 17.2 83 1.8 E 6 7 3 4 1007.0 1007.0 0.0
24/01:00am 20.1 21.2 17.1 83 1.8 ENE 7 7 4 4 1007.4 1007.4 0.0
24/12:30am 20.0 20.7 17.0 83 1.8 ESE 9 9 5 5 1007.4 1007.4 0.0
24/12:00am 20.3 21.0 17.1 82 2.0 ENE 9 11 5 6 1008.0 1008.0 0.0
 
Date/Time
EDT
Temp
°C
App
Temp
°C
Dew
Point
°C
Rel
Hum
%
Delta-T
°C
Wind Press
QNH
hPa
Press
MSL
hPa
Rain since
9am
mm
Dir  Spd
km/h
Gust
km/h
Spd
kts
Gust
kts
23/11:30pm 20.4 21.7 17.0 81 2.1 E 6 7 3 4 1008.3 1008.3 0.0
23/11:00pm 20.5 21.2 17.1 81 2.1 ENE 9 13 5 7 1008.6 1008.6 0.0
23/10:30pm 20.4 21.5 17.0 81 2.1 E 7 9 4 5 1008.9 1008.9 0.0
23/10:00pm 20.5 21.5 16.9 80 2.2 ENE 7 9 4 5 1009.3 1009.3 0.0
23/09:30pm 20.8 20.6 16.8 78 2.4 NE 13 19 7 10 1008.9 1008.9 0.0
23/09:00pm 20.8 21.3 16.6 77 2.5 ENE 9 13 5 7 1008.9 1008.9 0.0
23/08:30pm 21.1 20.8 16.5 75 2.8 NE 13 17 7 9 1009.2 1009.2 0.0
23/08:00pm 21.3 20.3 16.5 74 2.9 NE 17 28 9 15 1009.3 1009.3 0.0
23/07:30pm 21.7 18.8 16.2 71 3.3 ENE 26 41 14 22 1008.7 1008.7 0.0
23/07:00pm 22.3 19.0 16.1 68 3.8 ENE 28 41 15 22 1008.2 1008.2 0.0
23/06:30pm 22.9 20.3 16.0 65 4.2 ENE 24 35 13 19 1008.3 1008.3 0.0
23/06:00pm 23.7 21.0 15.7 61 4.8 ENE 24 37 13 20 1008.0 1008.0 0.0
23/05:30pm 24.8 20.8 15.1 54 5.8 ENE 30 37 16 20 1008.1 1008.1 0.0
23/05:00pm 25.3 22.6 15.6 55 5.9 ENE 24 35 13 19 1008.0 1008.0 0.0
23/04:30pm 26.1 23.2 16.1 54 6.1 ENE 26 33 14 18 1008.5 1008.5 0.0
23/04:00pm 25.9 22.6 15.0 51 6.6 ENE 26 33 14 18 1008.7 1008.7 0.0
23/03:30pm 26.6 23.8 15.3 50 6.9 ENE 24 33 13 18 1008.9 1008.9 0.0
23/03:00pm 25.8 22.7 15.5 53 6.3 ENE 26 33 14 18 1009.4 1009.4 0.0
23/02:30pm 26.9 24.5 15.3 49 7.0 ENE 22 32 12 17 1009.9 1009.9 0.0
23/02:00pm 27.6 25.5 14.6 45 7.8 ENE 19 26 10 14 1010.7 1010.7 0.0
23/01:30pm 28.2 26.9 13.7 41 8.6 ESE 13 28 7 15 1010.9 1010.9 0.0
23/01:00pm 28.7 28.1 13.4 39 9.1 E 9 26 5 14 1011.3 1011.3 0.0
23/12:30pm 27.5 27.2 14.5 45 7.8 NNE 9 20 5 11 1011.7 1011.7 0.0
23/12:00pm 26.9 26.8 15.0 48 7.2 ENE 9 17 5 9 1012.3 1012.3 0.0
23/11:30am 25.8 25.7 14.9 51 6.5 NE 9 15 5 8 1012.5 1012.5 0.0
23/11:00am 25.2 25.4 15.8 56 5.7 N 9 15 5 8 1013.0 1013.0 0.0
23/10:30am 24.0 24.0 15.2 58 5.3 NNE 9 15 5 8 1013.6 1013.6 0.0
23/10:00am 22.6 23.5 16.2 67 3.9 W 6 11 3 6 1014.0 1014.0 0.0
23/09:30am 21.3 21.9 15.8 71 3.3 W 7 11 4 6 1014.3 1014.3 0.0
23/09:03am 20.9 21.8 16.5 76 2.7 WNW 7 15 4 8 1014.5 1014.5 0.0
23/09:00am 20.4 21.3 16.0 76 2.6 NW 6 15 3 8 1014.5 1014.5 0.0
23/08:30am 19.7 20.4 16.2 80 2.1 NNE 7 11 4 6 1014.4 1014.4 0.0
23/08:00am 18.4 19.6 16.0 86 1.4 NNW 4 9 2 5 1014.5 1014.5 0.0
23/07:30am 17.9 19.5 16.8 93 0.7 ENE 4 7 2 4 1014.4 1014.4 0.0
23/07:00am 17.2 19.4 16.6 96 0.4 CALM 0 0 0 0 1013.9 1013.9 0.0
23/06:30am 16.4 17.9 15.8 96 0.4 ENE 2 9 1 5 1014.3 1014.3 0.0
23/06:00am 15.6 17.2 15.0 96 0.3 CALM 0 0 0 0 1013.9 1013.9 0.0
23/05:42am 15.4 17.0 14.8 96 0.3 CALM 0 0 0 0 1013.9 1013.9 0.0
23/05:30am 15.1 16.5 14.5 96 0.3 CALM 0 0 0 0 1013.9 1013.9 0.0
23/05:22am 15.1 16.5 14.3 95 0.5 CALM 0 0 0 0 1013.7 1013.7 0.0
23/05:21am 15.1 16.5 14.3 95 0.5 CALM 0 0 0 0 1013.7 1013.7 0.0
23/05:17am 15.0 16.3 14.2 95 0.5 CALM 0 0 0 0 1013.5 1013.5 0.0
23/05:00am 15.0 16.3 14.2 95 0.5 CALM 0 0 0 0 1013.3 1013.3 0.0
23/04:50am 15.2 16.6 14.4 95 0.5 CALM 0 0 0 0 1013.2 1013.2 0.0
23/04:30am 15.6 17.2 14.8 95 0.5 CALM 0 0 0 0 1013.1 1013.1 0.0
23/04:15am 15.7 17.3 14.9 95 0.5 CALM 0 0 0 0 1013.4 1013.4 0.0
23/04:04am 15.2 16.5 14.2 94 0.6 CALM 0 7 0 4 1013.5 1013.5 0.0
23/04:00am 15.5 16.9 14.5 94 0.6 CALM 0 0 0 0 1013.4 1013.4 0.0
23/03:38am 15.6 17.1 14.6 94 0.6 CALM 0 0 0 0 1013.1 1013.1 0.0
23/03:30am 15.9 17.5 14.9 94 0.6 CALM 0 0 0 0 1013.0 1013.0 0.0
23/03:00am 16.1 17.7 15.0 93 0.6 CALM 0 0 0 0 1013.1 1013.1 0.0
23/02:30am 16.3 18.0 15.2 93 0.6 CALM 0 0 0 0 1013.6 1013.6 0.0
23/02:00am 16.6 18.3 15.3 92 0.8 CALM 0 0 0 0 1014.1 1014.1 0.0
23/01:30am 17.2 18.3 15.5 90 1.0 ENE 4 7 2 4 1014.3 1014.3 0.0
23/01:00am 17.1 18.8 15.1 88 1.2 CALM 0 0 0 0 1014.8 1014.8 0.0
23/12:30am 18.5 19.2 15.6 83 1.7 ENE 6 7 3 4 1015.1 1015.1 0.0

Other formats

Comma delimited format used in spreadsheet applications
http://www.bom.gov.au/fwo/IDN60801/IDN60801.94765.axf

JavaScript Object Notation format (JSON) in row-major order
http://www.bom.gov.au/fwo/IDN60801/IDN60801.94765.json

Data quality

Most of these data are generated automatically and are frequently updated. Quality checks on data are not normally performed. It is possible for incorrect values to appear. Refer to information at About Latest Weather Observations and please check the disclaimer before using these data.